Time;durP1;ratioP1;P1;durP2;ratioP2;P2;SDS_P1;SDS_P2;PMS_P1;PMS_P2;Temp;Humidity;BMP_temperature;BMP_pressure;BME280_temperature;BME280_humidity;BME280_pressure;Samples;Min_cycle;Max_cycle;Signal;HPM_P1;HPM_P2
2023/08/21 00:02:47;;;;;;;16.83;12.80;;;25.10;99.90;;;;;;5092809;28;20058;-68
2023/08/21 00:05:51;;;;;;;17.38;11.65;;;25.00;99.90;;;;;;5093391;28;20039;-68
2023/08/21 00:08:55;;;;;;;13.20;11.80;;;24.90;99.90;;;;;;5093472;28;20102;-68
2023/08/21 00:11:59;;;;;;;22.58;12.00;;;24.90;99.90;;;;;;5092666;28;20086;-68
2023/08/21 00:15:03;;;;;;;15.88;11.63;;;24.90;99.90;;;;;;5093000;28;20035;-68
2023/08/21 00:18:07;;;;;;;16.70;12.90;;;24.90;99.90;;;;;;5080354;28;20035;-68
2023/08/21 00:21:11;;;;;;;14.40;12.27;;;24.90;99.90;;;;;;5092984;28;20055;-68
2023/08/21 00:24:15;;;;;;;13.82;12.30;;;24.90;99.90;;;;;;5092720;28;20047;-68
2023/08/21 00:27:19;;;;;;;15.95;12.27;;;24.90;99.90;;;;;;5092834;28;20067;-68
2023/08/21 00:30:23;;;;;;;15.73;12.52;;;24.90;99.90;;;;;;5092802;28;20039;-68
2023/08/21 00:33:28;;;;;;;17.35;12.85;;;24.90;99.90;;;;;;5092640;28;20055;-68
2023/08/21 00:36:32;;;;;;;13.88;11.90;;;24.90;99.90;;;;;;5092996;28;20042;-68
2023/08/21 00:39:36;;;;;;;13.77;11.88;;;24.90;99.90;;;;;;5092679;28;20051;-68
2023/08/21 00:42:40;;;;;;;15.02;11.68;;;24.90;99.90;;;;;;5079223;28;20422;-68
2023/08/21 00:45:45;;;;;;;16.50;12.75;;;24.90;99.90;;;;;;5092359;28;20063;-68
2023/08/21 00:48:49;;;;;;;15.75;11.93;;;24.90;99.90;;;;;;5092627;28;20043;-69
2023/08/21 00:51:53;;;;;;;17.40;13.07;;;24.80;99.90;;;;;;5068098;28;20047;-68
2023/08/21 00:54:58;;;;;;;17.98;12.82;;;24.60;99.90;;;;;;5092382;28;20047;-68
2023/08/21 00:58:03;;;;;;;15.52;13.05;;;24.50;99.90;;;;;;5079817;28;20040;-68
2023/08/21 01:01:07;;;;;;;16.98;13.35;;;24.20;99.90;;;;;;5091988;28;20114;-68
2023/08/21 01:04:11;;;;;;;15.15;12.95;;;24.10;99.90;;;;;;5092175;28;20106;-69
2023/08/21 01:07:15;;;;;;;17.20;12.82;;;24.10;99.90;;;;;;5079371;28;20050;-68
2023/08/21 01:10:29;;;;;;;16.90;13.98;;;24.00;99.90;;;;;;5092156;28;20054;-68
2023/08/21 01:13:51;;;;;;;15.27;12.85;;;24.00;99.90;;;;;;5079201;28;20062;-68
2023/08/21 01:17:02;;;;;;;14.77;13.05;;;24.00;99.90;;;;;;5079498;28;20043;-69
2023/08/21 01:20:10;;;;;;;17.40;14.55;;;24.10;99.90;;;;;;5091948;28;20047;-68
2023/08/21 01:23:37;;;;;;;17.83;14.68;;;24.10;99.90;;;;;;5078820;28;20509;-68
2023/08/21 01:26:40;;;;;;;15.85;14.10;;;24.10;99.90;;;;;;5091768;28;20501;-68
2023/08/21 01:29:45;;;;;;;15.07;13.50;;;24.20;99.90;;;;;;5091444;28;20055;-68
2023/08/21 01:33:13;;;;;;;18.67;14.48;;;24.20;99.90;;;;;;5078740;28;20039;-68
2023/08/21 01:36:17;;;;;;;18.50;14.27;;;24.10;99.90;;;;;;5091848;28;20047;-68
2023/08/21 01:39:22;;;;;;;15.70;14.00;;;24.20;99.90;;;;;;5091582;28;20047;-67
2023/08/21 01:42:26;;;;;;;15.13;13.52;;;24.20;99.90;;;;;;5090952;28;20054;-68
2023/08/21 01:45:30;;;;;;;17.08;13.77;;;24.20;99.90;;;;;;5091445;28;20047;-68
2023/08/21 01:48:34;;;;;;;20.08;14.75;;;24.20;99.90;;;;;;5091614;28;20043;-67
2023/08/21 01:51:38;;;;;;;17.63;14.05;;;24.10;99.90;;;;;;5078190;28;20402;-68
2023/08/21 01:54:42;;;;;;;16.58;14.45;;;24.10;99.90;;;;;;5078867;28;20044;-69
2023/08/21 01:57:47;;;;;;;15.77;13.93;;;24.00;99.90;;;;;;5091492;28;20035;-68
2023/08/21 02:00:50;;;;;;;24.70;14.82;;;24.00;99.90;;;;;;5067216;28;20046;-69
2023/08/21 02:03:55;;;;;;;19.73;14.25;;;24.00;99.90;;;;;;5091438;28;20051;-68
2023/08/21 02:06:59;;;;;;;21.55;14.18;;;24.00;99.90;;;;;;5078986;28;20047;-68
2023/08/21 02:10:04;;;;;;;18.80;14.30;;;24.00;99.90;;;;;;5078843;28;20391;-68
2023/08/21 02:13:08;;;;;;;18.98;15.20;;;23.90;99.90;;;;;;5090512;28;20035;-68
2023/08/21 02:16:11;;;;;;;18.83;14.45;;;23.90;99.90;;;;;;5078828;28;20051;-68
2023/08/21 02:19:15;;;;;;;17.98;14.18;;;23.80;99.90;;;;;;5091111;28;20074;-68
2023/08/21 02:22:20;;;;;;;18.92;14.75;;;23.80;99.90;;;;;;5078086;28;20043;-68
2023/08/21 02:25:24;;;;;;;17.25;14.45;;;23.80;99.90;;;;;;5078292;28;20055;-68
2023/08/21 02:28:28;;;;;;;18.40;15.43;;;23.70;99.90;;;;;;5078658;28;20501;-69
2023/08/21 02:31:31;;;;;;;17.92;14.90;;;23.60;99.90;;;;;;5078239;28;20047;-68
2023/08/21 02:34:35;;;;;;;18.92;14.93;;;23.50;99.90;;;;;;5090977;28;20059;-69
2023/08/21 02:37:40;;;;;;;15.88;14.23;;;23.50;99.90;;;;;;5091055;28;20043;-68
2023/08/21 02:40:44;;;;;;;18.00;14.23;;;23.40;99.90;;;;;;5090814;28;20402;-68
2023/08/21 02:43:48;;;;;;;14.73;13.13;;;23.40;99.90;;;;;;5090769;28;20494;-68
2023/08/21 02:46:52;;;;;;;16.27;14.48;;;23.50;99.90;;;;;;5078037;28;20502;-68
2023/08/21 02:49:56;;;;;;;20.52;14.73;;;23.60;99.90;;;;;;5090859;28;20391;-68
2023/08/21 02:53:00;;;;;;;19.45;14.43;;;23.60;99.90;;;;;;5066009;28;20079;-68
2023/08/21 02:56:04;;;;;;;24.92;14.25;;;23.60;99.90;;;;;;5078101;28;20395;-68
2023/08/21 02:59:08;;;;;;;24.20;14.20;;;23.60;99.90;;;;;;5090843;28;20039;-68
2023/08/21 03:02:13;;;;;;;24.00;14.20;;;23.40;99.90;;;;;;5090335;28;20059;-68
2023/08/21 03:05:18;;;;;;;17.35;14.20;;;23.20;99.90;;;;;;5080797;28;20047;-68
2023/08/21 03:08:22;;;;;;;24.25;14.98;;;23.10;99.90;;;;;;5094669;28;20383;-67
2023/08/21 03:11:26;;;;;;;20.65;14.10;;;23.00;99.90;;;;;;5094128;28;20047;-68
2023/08/21 03:14:30;;;;;;;19.48;15.15;;;23.00;99.90;;;;;;5081593;28;20103;-68
2023/08/21 03:17:34;;;;;;;18.67;14.32;;;23.00;99.90;;;;;;5081504;28;20486;-68
2023/08/21 03:20:44;;;;;;;22.00;15.32;;;23.00;99.90;;;;;;5080491;28;20386;-68
2023/08/21 03:23:56;;;;;;;18.65;15.15;;;23.00;99.90;;;;;;5074961;28;20047;-68
2023/08/21 03:27:00;;;;;;;21.70;15.60;;;23.00;99.90;;;;;;5073633;28;20051;-68
2023/08/21 03:30:04;;;;;;;17.67;14.10;;;23.00;99.90;;;;;;5074087;28;20403;-69
2023/08/21 03:33:08;;;;;;;18.35;14.27;;;23.10;99.90;;;;;;5079082;28;20051;-68
2023/08/21 03:36:12;;;;;;;16.63;14.18;;;23.10;99.90;;;;;;5081079;28;20032;-68
2023/08/21 03:39:16;;;;;;;17.45;14.73;;;23.00;99.90;;;;;;5081394;28;20486;-69
2023/08/21 03:42:23;;;;;;;19.63;14.35;;;23.00;99.90;;;;;;5081080;28;20051;-69
2023/08/21 03:45:27;;;;;;;18.75;14.35;;;22.80;99.90;;;;;;5085896;28;20047;-68
2023/08/21 03:48:32;;;;;;;23.77;15.73;;;22.70;99.90;;;;;;5081325;28;20043;-68
2023/08/21 03:51:36;;;;;;;21.00;14.85;;;22.50;99.90;;;;;;5092953;28;20047;-68
2023/08/21 03:54:40;;;;;;;17.58;15.05;;;22.50;99.90;;;;;;5093390;28;20067;-68
2023/08/21 03:57:44;;;;;;;24.40;15.35;;;22.30;99.90;;;;;;5094186;28;20478;-68
2023/08/21 04:00:48;;;;;;;19.58;15.35;;;22.40;99.90;;;;;;5093416;28;20039;-68
2023/08/21 04:03:52;;;;;;;19.30;14.30;;;22.40;99.90;;;;;;5076851;28;20051;-68
2023/08/21 04:06:56;;;;;;;17.92;15.20;;;22.40;99.90;;;;;;5080885;28;20055;-68
2023/08/21 04:09:59;;;;;;;20.48;15.05;;;22.40;99.90;;;;;;5093068;28;20522;-68
2023/08/21 04:13:05;;;;;;;18.77;14.40;;;22.30;99.90;;;;;;5080509;28;20043;-68
2023/08/21 04:16:09;;;;;;;15.48;13.80;;;22.40;99.90;;;;;;5080756;28;20505;-68
2023/08/21 04:19:13;;;;;;;16.90;15.10;;;22.40;99.90;;;;;;5092243;28;20039;-68
2023/08/21 04:22:17;;;;;;;19.00;15.82;;;22.30;99.90;;;;;;5092410;28;20051;-68
2023/08/21 04:25:21;;;;;;;28.55;14.73;;;22.30;99.90;;;;;;5092990;28;20509;-68
2023/08/21 04:28:25;;;;;;;26.48;15.73;;;22.30;99.90;;;;;;5080491;28;20403;-67
2023/08/21 04:31:28;;;;;;;23.95;14.95;;;22.30;99.90;;;;;;5080002;28;20047;-68
2023/08/21 04:34:33;;;;;;;19.13;15.27;;;22.30;99.90;;;;;;5092664;28;20035;-68
2023/08/21 04:37:42;;;;;;;16.90;13.65;;;22.50;99.90;;;;;;5080578;28;20390;-69
2023/08/21 04:40:46;;;;;;;20.00;14.27;;;22.60;99.90;;;;;;5092747;28;20402;-68
2023/08/21 04:43:51;;;;;;;21.25;15.18;;;22.70;99.90;;;;;;5092525;28;20051;-68
2023/08/21 04:46:55;;;;;;;17.85;14.77;;;22.70;99.90;;;;;;5080268;28;20514;-68
2023/08/21 04:49:59;;;;;;;29.77;15.00;;;22.80;99.90;;;;;;5089679;28;20055;-68
2023/08/21 04:53:05;;;;;;;26.67;14.35;;;22.80;99.90;;;;;;5079749;28;20051;-68
2023/08/21 04:56:09;;;;;;;15.77;14.07;;;22.90;99.90;;;;;;5080408;28;20038;-67
2023/08/21 04:59:14;;;;;;;25.90;15.18;;;23.00;99.90;;;;;;5080545;28;20043;-69
2023/08/21 05:02:18;;;;;;;24.75;14.68;;;23.00;99.90;;;;;;5079305;28;20039;-69
2023/08/21 05:05:22;;;;;;;17.45;14.30;;;23.00;99.90;;;;;;5092119;28;20047;-69
2023/08/21 05:08:26;;;;;;;18.33;14.38;;;23.20;99.90;;;;;;5092173;28;20047;-68
2023/08/21 05:11:30;;;;;;;19.63;13.63;;;23.50;99.90;;;;;;5079045;28;20043;-68
2023/08/21 05:14:35;;;;;;;17.63;13.23;;;23.80;99.90;;;;;;5078994;28;20047;-69
2023/08/21 05:17:39;;;;;;;25.10;13.73;;;23.80;99.90;;;;;;5085863;28;20043;-69
2023/08/21 05:20:43;;;;;;;17.02;12.15;;;24.00;99.90;;;;;;5079478;28;20043;-69
2023/08/21 05:23:47;;;;;;;20.50;12.35;;;25.50;99.90;;;;;;5078982;28;20039;-69
2023/08/21 05:26:52;;;;;;;13.10;11.23;;;27.10;99.90;;;;;;5067557;28;20394;-68
2023/08/21 05:29:55;;;;;;;19.13;11.68;;;28.70;99.90;;;;;;5079396;28;20067;-69
2023/08/21 05:32:59;;;;;;;18.27;12.02;;;30.20;99.90;;;;;;5079033;28;20046;-69
2023/08/21 05:36:04;;;;;;;16.48;11.98;;;30.70;99.90;;;;;;5079188;28;20051;-69
2023/08/21 05:39:10;;;;;;;21.83;11.98;;;31.10;99.90;;;;;;5092228;28;20090;-69
2023/08/21 05:42:15;;;;;;;17.45;11.30;;;32.40;98.80;;;;;;5078769;28;20038;-69
2023/08/21 05:45:20;;;;;;;15.93;10.25;;;33.60;97.10;;;;;;5078967;28;20047;-67
2023/08/21 05:48:23;;;;;;;14.02;9.40;;;34.50;95.50;;;;;;5091489;28;20039;-68
2023/08/21 05:51:27;;;;;;;13.75;10.25;;;35.00;94.00;;;;;;5091002;28;20050;-69
2023/08/21 05:54:31;;;;;;;13.55;9.70;;;35.10;93.50;;;;;;5091508;28;20042;-69
2023/08/21 05:57:36;;;;;;;17.55;9.52;;;35.60;92.50;;;;;;5091105;28;20039;-68
2023/08/21 06:00:39;;;;;;;12.50;9.23;;;36.10;92.00;;;;;;5073594;28;20493;-69
2023/08/21 06:03:44;;;;;;;11.05;9.57;;;36.10;91.10;;;;;;5086109;28;20043;-69
2023/08/21 06:07:14;;;;;;;12.82;9.98;;;33.90;92.10;;;;;;5080884;28;20043;-69
2023/08/21 06:10:18;;;;;;;14.95;9.85;;;35.10;91.90;;;;;;5090321;28;20044;-69
2023/08/21 06:13:22;;;;;;;10.50;9.40;;;34.40;92.70;;;;;;5069377;28;20501;-69
2023/08/21 06:16:29;;;;;;;9.70;8.70;;;34.60;90.80;;;;;;5072884;28;20039;-69
2023/08/21 06:19:33;;;;;;;14.10;9.30;;;34.50;91.30;;;;;;5071592;28;20050;-69
2023/08/21 06:22:38;;;;;;;10.45;8.73;;;34.70;91.30;;;;;;5082498;28;20047;-69
2023/08/21 06:25:44;;;;;;;15.02;9.40;;;35.20;91.00;;;;;;5072437;28;20047;-69
2023/08/21 06:28:48;;;;;;;12.60;8.63;;;36.10;90.20;;;;;;5075272;28;20043;-69
2023/08/21 06:31:52;;;;;;;10.82;8.43;;;36.50;89.10;;;;;;5081061;28;20052;-69
2023/08/21 06:34:56;;;;;;;13.75;8.70;;;36.40;90.00;;;;;;5079270;28;20043;-70
2023/08/21 06:38:00;;;;;;;10.27;8.02;;;34.90;90.30;;;;;;5087286;28;20047;-69
2023/08/21 06:41:04;;;;;;;12.00;9.35;;;34.70;90.40;;;;;;5083965;28;20038;-69
2023/08/21 06:44:08;;;;;;;10.70;8.32;;;33.80;91.10;;;;;;5081735;28;20051;-68
2023/08/21 06:47:12;;;;;;;9.30;8.25;;;34.50;90.00;;;;;;5081409;28;20050;-69
2023/08/21 06:50:16;;;;;;;12.88;8.23;;;35.30;88.60;;;;;;5079755;28;20047;-69
2023/08/21 06:53:21;;;;;;;9.00;7.63;;;35.20;89.90;;;;;;5089609;28;20394;-69
2023/08/21 06:56:24;;;;;;;9.07;7.47;;;36.70;87.70;;;;;;5080794;28;20494;-69
2023/08/21 06:59:28;;;;;;;10.85;6.85;;;37.80;85.40;;;;;;5076796;28;20052;-68
2023/08/21 07:02:32;;;;;;;8.70;7.78;;;38.80;83.00;;;;;;5090646;28;20039;-70
2023/08/21 07:05:37;;;;;;;9.10;8.20;;;37.00;84.20;;;;;;5094004;28;20040;-68
2023/08/21 07:08:42;;;;;;;14.23;8.80;;;34.90;88.60;;;;;;5091269;28;20043;-69
2023/08/21 07:11:45;;;;;;;11.10;8.60;;;34.60;89.60;;;;;;5087998;28;20498;-68
2023/08/21 07:14:49;;;;;;;9.88;8.88;;;33.70;89.80;;;;;;5094060;28;20051;-68
2023/08/21 07:17:55;;;;;;;13.05;8.73;;;33.30;90.80;;;;;;5088312;28;20047;-68
2023/08/21 07:21:00;;;;;;;11.93;8.10;;;33.80;90.40;;;;;;5093693;28;20328;-69
2023/08/21 07:24:05;;;;;;;13.73;8.45;;;34.80;90.30;;;;;;5088786;28;20047;-69
2023/08/21 07:27:10;;;;;;;10.38;8.25;;;33.90;90.10;;;;;;5090771;28;20052;-69
2023/08/21 07:30:17;;;;;;;9.07;7.40;;;34.30;89.10;;;;;;5092934;28;20047;-69
2023/08/21 07:33:21;;;;;;;12.63;7.32;;;36.20;86.70;;;;;;5090118;28;20043;-69
2023/08/21 07:36:25;;;;;;;17.63;7.72;;;37.80;84.60;;;;;;5092347;28;20047;-69
2023/08/21 07:39:29;;;;;;;8.32;6.43;;;38.60;82.80;;;;;;5092451;28;20039;-69
2023/08/21 07:42:33;;;;;;;23.48;7.97;;;38.60;81.40;;;;;;5090477;28;20047;-69
2023/08/21 07:45:38;;;;;;;7.95;5.85;;;40.10;80.10;;;;;;5087203;28;20047;-69
2023/08/21 07:48:42;;;;;;;7.53;6.60;;;41.20;77.30;;;;;;5088203;28;20643;-69
2023/08/21 07:51:46;;;;;;;8.48;5.90;;;41.00;75.80;;;;;;5085632;28;20497;-69
2023/08/21 07:54:54;;;;;;;7.88;6.00;;;41.90;75.50;;;;;;5089913;28;20043;-69
2023/08/21 07:57:58;;;;;;;7.45;6.00;;;42.60;74.80;;;;;;5087535;28;20035;-70
2023/08/21 08:01:04;;;;;;;7.47;6.00;;;42.80;74.10;;;;;;5089435;28;20533;-69
2023/08/21 08:04:10;;;;;;;7.97;5.75;;;43.00;73.40;;;;;;5091399;28;20039;-69
2023/08/21 08:07:14;;;;;;;9.95;6.90;;;39.90;75.60;;;;;;5092260;28;20489;-70
2023/08/21 08:10:18;;;;;;;8.23;6.85;;;37.40;78.90;;;;;;5092209;28;20043;-70
2023/08/21 08:13:22;;;;;;;9.45;6.70;;;38.00;79.40;;;;;;5091238;28;20051;-70
2023/08/21 08:16:26;;;;;;;10.65;7.10;;;39.50;78.30;;;;;;5087868;28;20498;-69
2023/08/21 08:19:30;;;;;;;7.18;6.28;;;38.10;79.00;;;;;;5087408;28;20384;-69
2023/08/21 08:22:34;;;;;;;7.13;6.10;;;38.20;81.00;;;;;;5088003;28;20039;-70
2023/08/21 08:25:38;;;;;;;7.10;6.40;;;39.80;79.50;;;;;;5080710;28;20048;-68
2023/08/21 08:28:42;;;;;;;7.22;5.95;;;40.00;76.30;;;;;;5076542;28;20066;-69
2023/08/21 08:31:46;;;;;;;8.23;6.40;;;42.20;74.90;;;;;;5091064;28;20046;-70
2023/08/21 08:34:50;;;;;;;8.23;6.40;;;41.00;74.80;;;;;;5090610;28;20383;-70
2023/08/21 08:37:54;;;;;;;7.75;6.15;;;39.10;75.20;;;;;;5087497;28;20035;-69
2023/08/21 08:41:02;;;;;;;8.68;6.10;;;40.90;74.90;;;;;;5073812;28;20063;-70
2023/08/21 08:44:06;;;;;;;13.05;6.88;;;41.20;74.60;;;;;;5091307;28;20516;-69
2023/08/21 08:47:11;;;;;;;6.15;5.50;;;41.00;75.00;;;;;;5072038;28;20454;-70
2023/08/21 08:50:17;;;;;;;6.03;5.53;;;43.00;73.40;;;;;;5089338;28;20055;-70
2023/08/21 08:53:22;;;;;;;7.68;5.95;;;42.80;74.00;;;;;;5090419;28;20047;-69
2023/08/21 08:56:26;;;;;;;9.57;5.88;;;42.10;72.70;;;;;;5080139;28;20027;-68
2023/08/21 08:59:33;;;;;;;6.93;5.80;;;43.00;72.30;;;;;;5083529;28;20035;-70
2023/08/21 09:02:37;;;;;;;12.10;6.53;;;42.90;71.10;;;;;;5083772;28;20039;-69
2023/08/21 09:05:42;;;;;;;6.55;5.25;;;44.80;70.10;;;;;;5083822;28;20035;-69
2023/08/21 09:08:58;;;;;;;9.85;5.43;;;44.30;70.20;;;;;;5084787;28;20055;-68
2023/08/21 09:12:09;;;;;;;7.70;5.10;;;44.80;68.60;;;;;;5088967;28;20039;-68
2023/08/21 09:15:13;;;;;;;13.23;5.40;;;46.20;66.90;;;;;;5088494;28;20058;-69
2023/08/21 09:18:17;;;;;;;5.95;4.97;;;45.40;66.30;;;;;;5090912;28;20039;-69
2023/08/21 09:21:23;;;;;;;9.00;5.28;;;47.10;66.20;;;;;;5090273;28;20039;-69
2023/08/21 09:24:27;;;;;;;14.93;4.93;;;48.80;64.40;;;;;;5086599;28;20043;-70
2023/08/21 09:27:32;;;;;;;8.98;5.50;;;46.70;62.50;;;;;;5086419;28;20059;-69
2023/08/21 09:30:50;;;;;;;6.32;4.93;;;42.30;66.80;;;;;;5087337;28;20043;-70
2023/08/21 09:34:04;;;;;;;8.23;4.90;;;44.90;66.80;;;;;;5087396;28;20031;-70
2023/08/21 09:37:10;;;;;;;5.43;4.68;;;46.40;65.20;;;;;;5083689;28;20039;-69
2023/08/21 09:40:16;;;;;;;8.57;4.50;;;48.00;64.30;;;;;;5083312;28;20255;-68
2023/08/21 09:43:24;;;;;;;8.65;4.70;;;48.80;62.40;;;;;;5087218;28;20229;-68
2023/08/21 09:46:29;;;;;;;5.57;4.50;;;49.60;60.70;;;;;;5084246;28;20043;-70
2023/08/21 09:49:34;;;;;;;6.18;4.43;;;50.80;61.10;;;;;;5085842;28;20039;-71
2023/08/21 09:52:38;;;;;;;7.10;3.85;;;49.50;61.40;;;;;;5088992;28;20043;-70
2023/08/21 09:56:03;;;;;;;6.10;4.10;;;49.40;59.00;;;;;;5086700;28;20039;-71
2023/08/21 09:59:08;;;;;;;6.63;4.30;;;50.80;58.20;;;;;;5073102;28;20035;-69
2023/08/21 10:02:13;;;;;;;6.43;4.13;;;49.00;58.60;;;;;;5085604;28;20039;-69
2023/08/21 10:05:18;;;;;;;17.15;4.45;;;50.60;58.60;;;;;;5075747;28;20039;-67
2023/08/21 10:08:25;;;;;;;16.38;4.22;;;52.20;57.50;;;;;;5086606;28;20055;-67
2023/08/21 10:11:30;;;;;;;7.03;3.45;;;52.60;56.40;;;;;;5079107;28;20126;-67
2023/08/21 10:14:36;;;;;;;5.55;3.67;;;53.40;56.20;;;;;;5085857;28;20043;-68
2023/08/21 10:17:44;;;;;;;7.55;4.28;;;53.80;55.20;;;;;;5084244;28;20043;-66
2023/08/21 10:20:49;;;;;;;6.22;3.60;;;54.00;54.40;;;;;;5088608;28;20051;-69
2023/08/21 10:23:55;;;;;;;4.53;3.03;;;54.30;54.20;;;;;;5088780;28;20062;-68
2023/08/21 10:26:59;;;;;;;5.78;3.35;;;54.80;52.90;;;;;;5089279;28;20059;-70
2023/08/21 10:30:13;;;;;;;4.30;3.40;;;54.00;53.60;;;;;;5079847;28;20043;-69
2023/08/21 10:33:37;;;;;;;6.45;3.88;;;50.70;54.90;;;;;;5080083;28;20047;-67
2023/08/21 10:36:44;;;;;;;4.78;3.60;;;50.00;54.80;;;;;;5084184;28;20035;-70
2023/08/21 10:39:56;;;;;;;5.75;3.45;;;49.90;55.70;;;;;;5085388;28;20043;-71
2023/08/21 10:43:02;;;;;;;5.90;4.10;;;49.30;55.50;;;;;;5085934;28;20043;-70
2023/08/21 10:46:08;;;;;;;7.50;3.78;;;47.00;57.10;;;;;;5084813;28;20043;-71
2023/08/21 10:49:13;;;;;;;7.22;3.92;;;49.00;55.80;;;;;;5082999;28;20040;-70
2023/08/21 10:52:23;;;;;;;3.80;3.50;;;49.70;54.60;;;;;;5086395;28;20055;-70
2023/08/21 10:55:28;;;;;;;5.90;4.00;;;50.60;54.50;;;;;;5084773;28;20047;-70
2023/08/21 10:58:41;;;;;;;5.60;4.35;;;50.40;52.00;;;;;;5083071;28;20419;-69
2023/08/21 11:01:45;;;;;;;6.03;3.90;;;48.80;53.00;;;;;;5082583;28;20035;-69
2023/08/21 11:04:50;;;;;;;7.22;4.38;;;46.70;54.30;;;;;;5088159;28;20051;-69
2023/08/21 11:07:54;;;;;;;6.53;4.00;;;45.70;54.50;;;;;;5082236;28;20039;-71
2023/08/21 11:10:58;;;;;;;6.95;3.85;;;46.40;54.60;;;;;;5079605;28;20344;-70
2023/08/21 11:14:03;;;;;;;7.20;3.90;;;47.40;54.50;;;;;;5069836;28;20040;-71
2023/08/21 11:17:08;;;;;;;4.75;3.88;;;49.20;53.20;;;;;;5086174;28;20043;-69
2023/08/21 11:20:12;;;;;;;9.48;3.97;;;47.70;53.60;;;;;;5084456;28;20047;-69
2023/08/21 11:23:16;;;;;;;6.18;3.80;;;47.60;54.10;;;;;;5083832;28;20047;-70
2023/08/21 12:35:06;;;;;;;8.20;4.63;;;45.80;52.70;;;;;;5078650;28;20052;-69
2023/08/21 12:38:12;;;;;;;8.23;5.28;;;45.30;53.30;;;;;;5070922;28;20059;-69
2023/08/21 12:41:16;;;;;;;10.25;4.78;;;44.90;54.30;;;;;;5072473;28;20203;-70
2023/08/21 12:44:20;;;;;;;7.25;4.22;;;46.30;53.90;;;;;;5082811;28;20043;-71
2023/08/21 13:03:05;;;;;;;9.82;4.70;;;47.30;53.50;;;;;;5092507;28;20364;-70
2023/08/21 13:06:08;;;;;;;23.13;5.22;;;46.60;53.80;;;;;;5091656;28;20035;-70
2023/08/21 13:09:12;;;;;;;6.70;4.45;;;46.30;54.40;;;;;;5091606;28;20418;-69
2023/08/21 13:12:16;;;;;;;9.05;4.75;;;45.50;54.70;;;;;;5090480;28;20051;-71
2023/08/21 13:20:59;;;;;;;6.40;4.20;;;44.20;54.10;;;;;;5092700;28;20028;-70
2023/08/21 13:24:03;;;;;;;10.43;4.53;;;44.30;54.30;;;;;;5091719;28;20043;-72
2023/08/21 13:27:07;;;;;;;8.07;4.70;;;44.50;53.70;;;;;;5092252;28;20047;-69
2023/08/21 13:30:12;;;;;;;8.90;4.50;;;44.00;53.70;;;;;;5091277;28;20513;-69
2023/08/21 13:33:17;;;;;;;11.50;4.40;;;43.90;53.70;;;;;;5091046;28;20047;-70
2023/08/21 13:36:21;;;;;;;9.02;4.68;;;44.20;53.60;;;;;;5091970;28;20043;-69
2023/08/21 13:39:26;;;;;;;5.40;4.85;;;43.60;54.70;;;;;;5091953;28;20051;-70
2023/08/21 13:42:31;;;;;;;11.98;4.70;;;43.10;55.20;;;;;;5090967;28;20047;-70
2023/08/21 13:45:35;;;;;;;7.75;4.95;;;43.50;55.30;;;;;;5091346;28;20039;-69
2023/08/21 13:48:39;;;;;;;8.52;5.25;;;43.70;54.10;;;;;;5091388;28;20058;-68
2023/08/21 13:51:43;;;;;;;8.25;5.45;;;43.20;55.50;;;;;;5091037;28;20047;-70
2023/08/21 13:54:47;;;;;;;8.48;5.50;;;42.40;56.00;;;;;;5091287;28;20051;-71
2023/08/21 13:57:51;;;;;;;6.80;5.30;;;42.00;56.00;;;;;;5091616;28;20043;-68
2023/08/21 14:00:57;;;;;;;11.07;5.15;;;42.00;56.30;;;;;;5091224;28;20047;-69
2023/08/21 14:04:01;;;;;;;10.25;5.03;;;42.20;56.30;;;;;;5091247;28;20051;-69
2023/08/21 14:07:05;;;;;;;9.35;5.35;;;42.00;56.40;;;;;;5091238;28;20055;-69
2023/08/21 14:10:09;;;;;;;7.60;5.15;;;41.50;56.00;;;;;;5090917;28;20059;-69
2023/08/21 14:13:13;;;;;;;9.40;5.47;;;41.40;55.80;;;;;;5090850;28;20068;-68
2023/08/21 14:16:17;;;;;;;7.93;4.90;;;41.20;56.20;;;;;;5090834;28;20498;-69
2023/08/21 14:19:21;;;;;;;8.32;5.47;;;41.10;56.40;;;;;;5091460;28;20391;-68
2023/08/21 14:22:25;;;;;;;7.50;5.10;;;40.70;56.60;;;;;;5090471;28;20044;-70
2023/08/21 14:25:30;;;;;;;6.13;5.28;;;40.70;56.40;;;;;;5091253;28;20039;-69
2023/08/21 14:28:33;;;;;;;6.78;5.30;;;41.00;56.40;;;;;;5091197;28;20051;-68
2023/08/21 14:31:37;;;;;;;9.32;5.03;;;40.90;56.40;;;;;;5078304;28;20490;-71
2023/08/21 14:34:41;;;;;;;8.77;5.10;;;40.80;56.90;;;;;;5090752;28;20051;-70
2023/08/21 14:37:45;;;;;;;6.43;5.63;;;40.30;57.30;;;;;;5090910;28;20043;-69
2023/08/21 14:40:50;;;;;;;6.63;5.43;;;40.50;57.60;;;;;;5090826;28;20046;-67
2023/08/21 14:43:54;;;;;;;11.98;5.40;;;40.40;57.20;;;;;;5090938;28;20047;-69
2023/08/21 14:46:58;;;;;;;10.50;5.63;;;40.50;57.70;;;;;;5090594;28;20047;-69
2023/08/21 14:50:02;;;;;;;9.13;5.45;;;40.60;57.70;;;;;;5090875;28;20098;-68
2023/08/21 14:53:06;;;;;;;8.75;5.57;;;40.30;57.30;;;;;;5090017;28;20391;-68
2023/08/21 14:56:10;;;;;;;13.70;5.68;;;40.00;58.00;;;;;;5090757;28;20063;-68
2023/08/21 14:59:14;;;;;;;7.88;5.63;;;39.80;59.10;;;;;;5090579;28;20054;-69
2023/08/21 15:02:18;;;;;;;5.50;4.85;;;39.70;59.50;;;;;;5094177;28;20386;-68
2023/08/21 15:05:22;;;;;;;10.10;5.90;;;39.30;57.50;;;;;;5094759;28;20058;-70
2023/08/21 15:08:27;;;;;;;10.63;5.53;;;39.20;57.00;;;;;;5094536;28;20223;-68
2023/08/21 15:11:31;;;;;;;7.43;5.15;;;39.10;57.80;;;;;;5094084;28;20051;-69
2023/08/21 15:14:35;;;;;;;9.23;5.75;;;39.30;58.10;;;;;;5094024;28;20601;-70
2023/08/21 15:17:38;;;;;;;8.23;5.40;;;39.40;59.60;;;;;;5094459;28;20051;-70
2023/08/21 15:20:42;;;;;;;7.10;5.13;;;39.40;58.90;;;;;;5093999;28;20411;-71
2023/08/21 15:23:46;;;;;;;9.13;5.68;;;39.30;58.90;;;;;;5094393;28;20039;-69
2023/08/21 15:26:50;;;;;;;11.00;6.13;;;39.10;59.50;;;;;;5094223;28;20043;-69
2023/08/21 15:29:54;;;;;;;13.88;6.30;;;38.90;60.40;;;;;;5093992;28;20035;-69
2023/08/21 15:32:58;;;;;;;11.27;5.97;;;38.70;60.30;;;;;;5093607;28;20054;-70
2023/08/21 15:36:02;;;;;;;10.15;6.00;;;38.70;60.30;;;;;;5093991;28;20059;-67
2023/08/21 15:39:06;;;;;;;11.48;5.90;;;38.50;60.50;;;;;;5093855;28;20506;-69
2023/08/21 15:42:10;;;;;;;8.65;5.90;;;38.20;61.60;;;;;;5093475;28;20043;-69
2023/08/21 15:45:14;;;;;;;14.80;6.30;;;38.30;60.70;;;;;;5094166;28;20047;-68
2023/08/21 16:19:33;;;;;;;10.25;7.10;;;36.40;63.80;;;;;;5091992;28;20486;-68
2023/08/21 16:22:37;;;;;;;11.88;6.85;;;36.10;64.70;;;;;;5092765;28;20501;-67
2023/08/21 16:25:41;;;;;;;10.60;7.25;;;36.10;64.70;;;;;;5091776;28;20051;-68
2023/08/21 16:28:45;;;;;;;8.18;6.78;;;35.80;65.10;;;;;;5093063;28;20111;-69
2023/08/21 16:31:53;;;;;;;10.13;7.35;;;35.70;65.30;;;;;;5092602;28;20039;-69
2023/08/21 16:34:56;;;;;;;9.32;6.55;;;35.50;65.80;;;;;;5092841;28;20075;-69
2023/08/21 16:38:00;;;;;;;11.38;6.97;;;35.50;66.20;;;;;;5092511;28;20525;-69
2023/08/21 16:41:04;;;;;;;11.43;7.40;;;35.50;66.10;;;;;;5092968;28;20135;-70
2023/08/21 16:44:08;;;;;;;8.95;6.72;;;35.50;66.40;;;;;;5092519;28;20525;-68
2023/08/21 16:47:12;;;;;;;14.68;8.13;;;35.20;66.70;;;;;;5080512;28;20043;-69
2023/08/21 16:50:17;;;;;;;10.48;7.20;;;35.20;67.20;;;;;;5092990;28;20517;-68
2023/08/21 16:53:23;;;;;;;10.80;7.15;;;35.00;67.20;;;;;;5092442;28;20052;-69
2023/08/21 16:56:28;;;;;;;16.98;7.30;;;34.90;67.70;;;;;;5093275;28;20046;-68
2023/08/21 16:59:32;;;;;;;8.57;7.18;;;34.60;68.10;;;;;;5092934;28;20043;-67
2023/08/21 17:02:37;;;;;;;15.07;7.47;;;34.50;68.40;;;;;;5080045;28;20047;-69
2023/08/21 17:05:41;;;;;;;16.20;7.63;;;34.30;68.90;;;;;;5091693;28;20050;-68
2023/08/21 17:08:45;;;;;;;10.13;8.18;;;34.30;69.20;;;;;;5093143;28;20059;-68
2023/08/21 17:11:49;;;;;;;12.90;7.03;;;34.10;69.30;;;;;;5079525;28;20043;-67
2023/08/21 17:14:53;;;;;;;11.00;6.88;;;34.10;69.60;;;;;;5092177;28;20055;-68
2023/08/21 17:17:57;;;;;;;12.57;7.68;;;34.00;69.90;;;;;;5080224;28;20051;-68
2023/08/21 17:21:02;;;;;;;13.13;7.97;;;33.80;70.30;;;;;;5092290;28;20367;-70
2023/08/21 17:24:06;;;;;;;9.45;7.30;;;33.70;70.40;;;;;;5078904;28;20063;-69
2023/08/21 17:27:09;;;;;;;13.77;7.60;;;33.60;70.80;;;;;;5091776;28;20058;-69
2023/08/21 17:30:14;;;;;;;12.07;7.30;;;33.50;71.00;;;;;;5091991;28;20047;-71
2023/08/21 17:33:18;;;;;;;12.43;7.70;;;33.40;71.10;;;;;;5091468;28;20051;-67
2023/08/21 17:36:22;;;;;;;12.00;8.07;;;33.30;71.40;;;;;;5091603;28;20051;-69
2023/08/21 17:39:27;;;;;;;17.98;7.55;;;33.20;71.60;;;;;;5091716;28;20498;-69
2023/08/21 17:42:31;;;;;;;10.07;6.80;;;33.20;72.10;;;;;;5093059;28;20055;-68
2023/08/21 17:45:35;;;;;;;8.70;7.18;;;33.00;70.70;;;;;;5091552;28;20039;-67
2023/08/21 17:48:39;;;;;;;8.77;6.78;;;32.90;70.70;;;;;;5091488;28;20509;-69
2023/08/21 17:51:43;;;;;;;8.93;7.10;;;32.80;70.30;;;;;;5091540;28;20071;-68
2023/08/21 17:54:47;;;;;;;12.30;7.32;;;32.60;70.30;;;;;;5091231;28;20058;-68